Terminal Aerodrome Forecast
Issued by NWS

Home | Current Version | Previous Version | Text Only | Print | Product List | Glossary On
Versions: 1 2 3 4 5 6 7 8 9 10 11 12 13
000
FTUS45 KREV 302300
TAFCXP
TAF
KCXP 302329Z 3100/3124 VRB03KT P6SM SCT150 OVC200
      TEMPO 3100/3103 20010G18KT
     FM310300 18007KT P6SM SCT100 OVC180
     FM312000 20015G25KT P6SM SCT060 OVC120=

USA.gov is the U.S. government's official web portal to all federal, state and local government web resources and services.